createdAt,value
2022-09-28T00:00:28.773Z,35.90
2022-09-28T00:01:29.064Z,39.40
2022-09-28T00:02:28.897Z,41.10
2022-09-28T00:03:28.866Z,37.80
2022-09-28T00:04:29.305Z,36.70
2022-09-28T00:05:28.913Z,41.10
2022-09-28T00:06:28.868Z,39.20
2022-09-28T00:07:28.918Z,38.70
2022-09-28T00:08:29.010Z,41.50
2022-09-28T00:09:28.906Z,37.50
2022-09-28T00:10:28.913Z,41.80
2022-09-28T00:11:28.881Z,47.00
2022-09-28T00:12:28.898Z,42.90
2022-09-28T00:13:28.958Z,42.00
2022-09-28T00:14:28.899Z,43.90
2022-09-28T00:15:28.929Z,37.30
2022-09-28T00:16:28.940Z,37.80
2022-09-28T00:17:28.930Z,38.10
2022-09-28T00:18:28.902Z,41.10
2022-09-28T00:19:28.977Z,38.70
2022-09-28T00:20:28.894Z,39.90
2022-09-28T00:21:28.922Z,38.50
2022-09-28T00:22:28.906Z,39.30
2022-09-28T00:23:28.940Z,41.60
2022-09-28T00:24:28.906Z,43.00
2022-09-28T00:25:29.080Z,40.50
2022-09-28T00:26:28.929Z,40.70
2022-09-28T00:27:28.939Z,40.90
2022-09-28T00:28:28.974Z,38.60
2022-09-28T00:29:29.114Z,41.10
2022-09-28T00:30:28.949Z,44.00
2022-09-28T00:31:29.054Z,44.30
2022-09-28T00:32:28.971Z,41.70
2022-09-28T00:33:29.012Z,42.80
2022-09-28T00:34:28.963Z,43.50
2022-09-28T00:35:29.012Z,42.20
2022-09-28T00:36:28.977Z,41.90
2022-09-28T00:37:29.019Z,40.90
2022-09-28T00:38:28.980Z,45.30
2022-09-28T00:39:29.005Z,41.30
2022-09-28T00:40:29.217Z,42.80
2022-09-28T00:41:28.991Z,43.80
2022-09-28T00:42:28.969Z,41.60
2022-09-28T00:43:29.008Z,39.60
2022-09-28T00:44:28.957Z,48.00
2022-09-28T00:45:39.303Z,49.30
2022-09-28T00:46:28.965Z,44.30
2022-09-28T00:47:28.966Z,54.80
2022-09-28T00:48:28.948Z,43.30
2022-09-28T00:49:28.983Z,45.90
2022-09-28T00:50:28.958Z,40.90
2022-09-28T00:51:29.044Z,40.40
2022-09-28T00:52:28.938Z,41.90
2022-09-28T00:53:28.976Z,41.80
2022-09-28T00:54:28.934Z,42.70
2022-09-28T00:55:29.099Z,43.90
2022-09-28T00:56:28.938Z,44.60
2022-09-28T00:57:28.974Z,45.20
2022-09-28T00:58:29.449Z,47.20
2022-09-28T00:59:28.952Z,47.40
2022-09-28T01:00:28.963Z,52.40
2022-09-28T01:01:28.961Z,43.90
2022-09-28T01:02:29.068Z,48.50
2022-09-28T01:03:28.946Z,48.90
2022-09-28T01:04:30.023Z,41.10
2022-09-28T01:05:28.939Z,41.70
2022-09-28T01:06:28.930Z,41.80
2022-09-28T01:07:28.958Z,46.40
2022-09-28T01:08:28.936Z,39.90
2022-09-28T01:09:28.948Z,42.70
2022-09-28T01:10:28.934Z,48.50
2022-09-28T01:11:28.957Z,42.00
2022-09-28T01:12:29.099Z,41.60
2022-09-28T01:13:28.949Z,43.10
2022-09-28T01:14:28.935Z,47.70
2022-09-28T01:15:28.945Z,46.40
2022-09-28T01:16:29.007Z,42.30
2022-09-28T01:17:28.959Z,42.90
2022-09-28T01:18:28.941Z,43.20
2022-09-28T01:19:28.935Z,43.30
2022-09-28T01:20:28.912Z,42.00
2022-09-28T01:21:28.947Z,40.90
2022-09-28T01:22:28.888Z,46.90
2022-09-28T01:23:28.923Z,46.00
2022-09-28T01:24:28.998Z,41.80
2022-09-28T01:25:28.885Z,41.30
2022-09-28T01:26:28.857Z,42.90
2022-09-28T01:27:28.882Z,45.50
2022-09-28T01:28:28.852Z,44.10
2022-09-28T01:29:28.850Z,48.00
2022-09-28T01:30:28.863Z,46.20
2022-09-28T01:31:28.924Z,44.50
2022-09-28T01:32:28.850Z,42.90
2022-09-28T01:33:28.858Z,44.50
2022-09-28T01:34:28.854Z,46.20
2022-09-28T01:35:28.835Z,44.80
2022-09-28T01:36:28.962Z,44.00
2022-09-28T01:37:28.847Z,42.80
2022-09-28T01:38:28.830Z,43.40
2022-09-28T01:39:28.850Z,43.40
2022-09-28T01:40:28.895Z,43.50
2022-09-28T01:41:28.857Z,48.70
2022-09-28T01:42:28.962Z,41.60
2022-09-28T01:43:28.850Z,45.10
2022-09-28T01:44:28.829Z,46.30
2022-09-28T01:45:39.166Z,44.40
2022-09-28T01:46:28.830Z,45.20
2022-09-28T01:47:28.867Z,40.20
2022-09-28T01:48:28.885Z,39.40
2022-09-28T01:49:28.852Z,41.10
2022-09-28T01:50:28.827Z,40.70
2022-09-28T01:51:28.833Z,42.30
2022-09-28T01:52:28.815Z,37.70
2022-09-28T01:53:28.843Z,44.40
2022-09-28T01:54:28.827Z,37.60
2022-09-28T01:55:28.830Z,36.70
2022-09-28T01:56:28.835Z,35.80
2022-09-28T01:57:28.832Z,36.40
2022-09-28T01:58:28.825Z,36.80
2022-09-28T01:59:28.959Z,38.80
2022-09-28T02:00:28.861Z,38.20
2022-09-28T02:01:28.828Z,37.70
2022-09-28T02:02:28.939Z,39.20
2022-09-28T02:03:28.800Z,35.40
2022-09-28T02:04:28.772Z,38.60
2022-09-28T02:05:28.827Z,35.80
2022-09-28T02:06:28.769Z,38.00
2022-09-28T02:07:28.905Z,36.50
2022-09-28T02:08:28.754Z,36.90
2022-09-28T02:09:33.609Z,38.50
2022-09-28T02:10:28.759Z,41.40
2022-09-28T02:11:28.807Z,37.70
2022-09-28T02:12:28.740Z,37.60
2022-09-28T02:13:29.243Z,34.00
2022-09-28T02:14:28.737Z,32.70
2022-09-28T02:15:28.749Z,33.70
2022-09-28T02:16:28.758Z,33.70
2022-09-28T02:17:28.735Z,33.10
2022-09-28T02:18:28.708Z,32.10
2022-09-28T02:19:28.707Z,29.00
2022-09-28T02:20:28.674Z,29.20
2022-09-28T02:21:28.698Z,31.10
2022-09-28T02:22:28.699Z,32.60
2022-09-28T02:23:28.698Z,31.40
2022-09-28T02:24:28.675Z,30.40
2022-09-28T02:25:28.670Z,31.40
2022-09-28T02:26:28.658Z,30.30
2022-09-28T02:27:28.665Z,27.90
2022-09-28T02:28:28.630Z,28.20
2022-09-28T02:29:28.724Z,30.70
2022-09-28T02:30:28.662Z,26.80
2022-09-28T02:31:28.783Z,26.90
2022-09-28T02:32:28.645Z,26.60
2022-09-28T02:33:28.664Z,26.90
2022-09-28T02:34:28.617Z,25.90
2022-09-28T02:35:28.694Z,28.30
2022-09-28T02:36:28.613Z,26.80
2022-09-28T02:37:28.627Z,25.70
2022-09-28T02:38:28.605Z,25.70
2022-09-28T02:39:28.636Z,25.70
2022-09-28T02:40:28.689Z,24.30
2022-09-28T02:41:28.730Z,27.20
2022-09-28T02:42:28.585Z,25.90
2022-09-28T02:43:28.613Z,26.10
2022-09-28T02:44:28.592Z,25.10
2022-09-28T02:45:39.765Z,25.30
2022-09-28T02:46:28.593Z,25.50
2022-09-28T02:47:28.660Z,21.90
2022-09-28T02:48:43.208Z,21.90
2022-09-28T02:49:28.611Z,20.10
2022-09-28T02:50:29.255Z,21.60
2022-09-28T02:51:33.493Z,21.10
2022-09-28T02:52:33.658Z,20.30
2022-09-28T02:53:33.602Z,19.80
2022-09-28T02:54:33.635Z,21.00
2022-09-28T02:55:33.597Z,21.20
2022-09-28T02:56:33.622Z,20.40
2022-09-28T02:57:33.603Z,20.00
2022-09-28T02:58:34.180Z,17.80
2022-09-28T02:59:33.624Z,18.80
2022-09-28T03:00:33.729Z,18.50
2022-09-28T03:01:33.616Z,18.50
2022-09-28T03:02:33.640Z,17.90
2022-09-28T03:03:33.618Z,20.70
2022-09-28T03:04:33.655Z,18.40
2022-09-28T03:05:33.615Z,18.50
2022-09-28T03:06:33.620Z,19.20
2022-09-28T03:07:33.611Z,17.60
2022-09-28T03:08:33.622Z,18.30
2022-09-28T03:09:33.603Z,18.20
2022-09-28T03:10:33.639Z,17.40
2022-09-28T03:11:33.647Z,17.30
2022-09-28T03:12:33.620Z,16.80
2022-09-28T03:13:33.638Z,17.20
2022-09-28T03:14:33.635Z,17.50
2022-09-28T03:15:33.617Z,17.60
2022-09-28T03:16:33.675Z,17.50
2022-09-28T03:17:33.620Z,18.90
2022-09-28T03:18:33.638Z,17.40
2022-09-28T03:19:33.627Z,17.50
2022-09-28T03:20:33.649Z,17.60
2022-09-28T03:21:33.885Z,18.40
2022-09-28T03:22:33.647Z,18.00
2022-09-28T03:23:33.627Z,17.50
2022-09-28T03:24:33.635Z,17.50
2022-09-28T03:25:33.603Z,17.50
2022-09-28T03:28:27.614Z,19.30
2022-09-28T03:29:27.614Z,19.10
2022-09-28T03:30:27.630Z,17.80
2022-09-28T03:31:27.656Z,18.10
2022-09-28T03:32:27.666Z,19.20
2022-09-28T03:33:27.621Z,20.20
2022-09-28T03:34:27.590Z,20.20
2022-09-28T03:35:27.573Z,18.80
2022-09-28T03:36:27.578Z,20.40
2022-09-28T03:37:27.569Z,19.20
2022-09-28T03:38:27.580Z,19.30
2022-09-28T03:39:27.555Z,20.20
2022-09-28T03:40:27.751Z,20.30
2022-09-28T03:41:27.544Z,19.70
2022-09-28T03:42:27.567Z,20.50
2022-09-28T03:43:27.580Z,20.80
2022-09-28T03:44:27.580Z,20.00
2022-09-28T03:45:39.143Z,18.80
2022-09-28T03:46:27.581Z,19.60
2022-09-28T03:47:27.564Z,20.20
2022-09-28T03:48:31.844Z,20.40
2022-09-28T03:49:27.580Z,20.30
2022-09-28T03:50:27.604Z,20.30
2022-09-28T03:51:27.701Z,19.80
2022-09-28T03:52:27.631Z,21.50
2022-09-28T03:53:27.650Z,20.70
2022-09-28T03:54:27.615Z,21.00
2022-09-28T03:55:27.585Z,20.20
2022-09-28T03:56:27.606Z,23.00
2022-09-28T03:57:27.616Z,19.90
2022-09-28T03:58:33.480Z,20.70
2022-09-28T03:59:33.595Z,19.70
2022-09-28T04:00:33.673Z,20.80
2022-09-28T04:01:33.658Z,20.00
2022-09-28T04:02:33.718Z,21.50
2022-09-28T04:03:33.613Z,22.60
2022-09-28T04:04:33.578Z,22.80
2022-09-28T04:05:33.591Z,22.30
2022-09-28T04:06:33.581Z,20.90
2022-09-28T04:07:33.585Z,22.50
2022-09-28T04:08:33.684Z,20.60
2022-09-28T04:09:33.594Z,21.70
2022-09-28T04:10:33.623Z,22.80
2022-09-28T04:11:42.970Z,23.20
2022-09-28T04:12:34.092Z,22.10
2022-09-28T04:13:33.600Z,22.00
2022-09-28T04:14:33.705Z,21.40
2022-09-28T04:15:33.596Z,24.70
2022-09-28T04:16:33.624Z,22.50
2022-09-28T04:17:37.794Z,21.40
2022-09-28T04:18:33.602Z,24.20
2022-09-28T04:19:33.750Z,21.80
2022-09-28T04:20:33.706Z,22.10
2022-09-28T04:21:33.596Z,22.40
2022-09-28T04:22:33.567Z,23.50
2022-09-28T04:23:33.581Z,22.30
2022-09-28T04:24:33.631Z,24.80
2022-09-28T04:25:33.722Z,22.10
2022-09-28T04:26:33.594Z,22.00
2022-09-28T04:27:33.567Z,23.10
2022-09-28T04:28:33.512Z,22.20
2022-09-28T04:29:33.527Z,22.80
2022-09-28T04:30:33.503Z,22.60
2022-09-28T04:31:33.601Z,22.30
2022-09-28T04:32:33.499Z,21.00
2022-09-28T04:33:33.505Z,23.60
2022-09-28T04:34:36.370Z,24.40
2022-09-28T04:35:33.494Z,23.30
2022-09-28T04:36:33.548Z,23.20
2022-09-28T04:37:33.498Z,23.90
2022-09-28T04:38:51.841Z,23.60
2022-09-28T04:39:33.476Z,22.00
2022-09-28T04:40:33.488Z,22.00
2022-09-28T04:41:33.455Z,23.90
2022-09-28T04:42:33.437Z,25.20
2022-09-28T04:43:33.454Z,23.50
2022-09-28T04:44:33.465Z,22.20
2022-09-28T04:45:33.513Z,22.60
2022-09-28T04:46:33.439Z,24.50
2022-09-28T04:47:33.569Z,23.70
2022-09-28T04:48:33.890Z,21.90
2022-09-28T04:49:33.439Z,23.20
2022-09-28T04:50:33.549Z,25.20
2022-09-28T04:51:33.430Z,23.60
2022-09-28T04:52:33.384Z,25.00
2022-09-28T04:53:33.393Z,25.40
2022-09-28T04:54:33.360Z,23.20
2022-09-28T04:55:33.373Z,27.50
2022-09-28T04:56:33.383Z,24.60
2022-09-28T04:57:33.359Z,24.40
2022-09-28T04:58:33.425Z,24.40
2022-09-28T04:59:33.336Z,28.90
2022-09-28T05:00:33.301Z,24.80
2022-09-28T05:01:33.359Z,21.90
2022-09-28T05:02:33.451Z,27.60
2022-09-28T05:03:33.319Z,31.10
2022-09-28T05:04:33.288Z,23.10
2022-09-28T05:05:33.285Z,27.10
2022-09-28T05:06:33.253Z,26.50
2022-09-28T05:07:33.281Z,24.50
2022-09-28T05:08:33.352Z,23.20
2022-09-28T05:09:37.649Z,26.80
2022-09-28T05:10:39.112Z,24.60
2022-09-28T05:11:39.217Z,23.40
2022-09-28T05:12:39.179Z,28.30
2022-09-28T05:13:39.223Z,26.30
2022-09-28T05:14:39.183Z,28.50
2022-09-28T05:15:39.188Z,24.80
2022-09-28T05:16:39.215Z,27.50
2022-09-28T05:17:39.191Z,29.20
2022-09-28T05:18:39.138Z,28.60
2022-09-28T05:19:39.220Z,25.80
2022-09-28T05:20:39.122Z,25.30
2022-09-28T05:21:39.129Z,28.70
2022-09-28T05:22:39.106Z,26.90
2022-09-28T05:23:39.144Z,26.40
2022-09-28T05:24:39.098Z,25.80
2022-09-28T05:25:39.218Z,28.40
2022-09-28T05:26:39.063Z,24.50
2022-09-28T05:27:39.082Z,27.60
2022-09-28T05:28:39.038Z,28.80
2022-09-28T05:29:39.053Z,23.50
2022-09-28T05:30:39.059Z,29.70
2022-09-28T05:31:39.096Z,28.20
2022-09-28T05:32:39.009Z,27.80
2022-09-28T05:33:39.049Z,25.50
2022-09-28T05:34:39.012Z,23.40
2022-09-28T05:35:39.019Z,26.70
2022-09-28T05:36:38.992Z,23.30
2022-09-28T05:37:39.028Z,23.00
2022-09-28T05:38:38.990Z,21.70
2022-09-28T05:39:38.987Z,24.40
2022-09-28T05:40:39.191Z,25.40
2022-09-28T05:41:38.992Z,24.40
2022-09-28T05:42:38.959Z,23.30
2022-09-28T05:43:38.996Z,23.70
2022-09-28T05:44:38.929Z,23.60
2022-09-28T05:45:38.963Z,24.00
2022-09-28T05:46:38.905Z,23.50
2022-09-28T05:47:38.920Z,24.40
2022-09-28T05:48:38.887Z,23.60
2022-09-28T05:49:39.012Z,27.80
2022-09-28T05:50:38.863Z,28.40
2022-09-28T05:51:38.900Z,25.20
2022-09-28T05:52:38.832Z,24.40
2022-09-28T05:53:38.869Z,24.20
2022-09-28T05:54:38.818Z,25.70
2022-09-28T05:55:38.858Z,24.50
2022-09-28T05:56:38.814Z,27.60
2022-09-28T05:57:38.836Z,28.70
2022-09-28T05:58:38.809Z,31.40
2022-09-28T05:59:38.847Z,30.10
2022-09-28T06:00:38.816Z,29.90
2022-09-28T06:01:38.915Z,30.50
2022-09-28T06:02:38.949Z,30.00
2022-09-28T06:03:38.842Z,34.30
2022-09-28T06:04:38.808Z,30.70
2022-09-28T06:05:38.828Z,28.60
2022-09-28T06:06:38.793Z,37.80
2022-09-28T06:07:38.910Z,32.80
2022-09-28T06:08:38.769Z,45.80
2022-09-28T06:09:38.789Z,32.40
2022-09-28T06:10:38.747Z,32.50
2022-09-28T06:11:38.743Z,37.90
2022-09-28T06:12:38.729Z,42.80
2022-09-28T06:13:38.847Z,34.50
2022-09-28T06:14:38.690Z,32.80
2022-09-28T06:15:38.771Z,33.80
2022-09-28T06:16:43.609Z,28.50
2022-09-28T06:17:38.724Z,31.60
2022-09-28T06:18:38.680Z,31.00
2022-09-28T06:19:38.668Z,32.60
2022-09-28T06:20:38.629Z,28.70
2022-09-28T06:21:38.724Z,29.00
2022-09-28T06:22:38.605Z,29.20
2022-09-28T06:23:40.394Z,27.60
2022-09-28T06:24:38.738Z,27.30
2022-09-28T06:25:38.627Z,28.40
2022-09-28T06:26:38.604Z,27.00
2022-09-28T06:27:38.734Z,24.20
2022-09-28T06:28:38.637Z,24.30
2022-09-28T06:29:38.619Z,25.60
2022-09-28T06:30:38.772Z,24.80
2022-09-28T06:31:38.616Z,24.90
2022-09-28T06:32:38.614Z,28.20
2022-09-28T06:33:38.751Z,24.00
2022-09-28T06:34:38.599Z,27.80
2022-09-28T06:35:38.619Z,24.70
2022-09-28T06:36:38.586Z,22.90
2022-09-28T06:37:38.603Z,23.40
2022-09-28T06:38:38.574Z,26.00
2022-09-28T06:39:38.615Z,24.60
2022-09-28T06:40:38.627Z,23.30
2022-09-28T06:41:38.578Z,23.30
2022-09-28T06:42:38.560Z,23.30
2022-09-28T06:43:38.600Z,22.80
2022-09-28T06:44:38.549Z,23.80
2022-09-28T06:45:38.572Z,25.60
2022-09-28T06:46:38.629Z,23.50
2022-09-28T06:47:38.567Z,25.30
2022-09-28T06:48:38.523Z,24.60
2022-09-28T06:49:38.717Z,24.80
2022-09-28T06:50:38.469Z,21.30
2022-09-28T06:51:38.485Z,22.40
2022-09-28T06:52:38.449Z,21.60
2022-09-28T06:53:38.445Z,21.30
2022-09-28T06:54:38.445Z,24.00
2022-09-28T06:55:38.420Z,22.00
2022-09-28T06:56:38.392Z,20.30
2022-09-28T06:57:38.413Z,21.90
2022-09-28T06:58:38.386Z,19.80
2022-09-28T06:59:38.388Z,20.20
2022-09-28T07:00:38.332Z,22.00
2022-09-28T07:01:38.554Z,21.30
2022-09-28T07:02:38.396Z,20.00
2022-09-28T07:03:38.364Z,22.10
2022-09-28T07:04:38.314Z,20.30
2022-09-28T07:05:38.310Z,18.90
2022-09-28T07:06:38.305Z,19.50
2022-09-28T07:07:38.454Z,18.80
2022-09-28T07:08:38.251Z,19.20
2022-09-28T07:09:43.691Z,19.50
2022-09-28T07:10:38.247Z,18.60
2022-09-28T07:11:38.239Z,20.10
2022-09-28T07:12:38.226Z,20.90
2022-09-28T07:13:49.051Z,17.80
2022-09-28T07:14:47.011Z,17.70
2022-09-28T07:15:38.219Z,17.70
2022-09-28T07:17:01.589Z,16.10
2022-09-28T07:17:54.084Z,17.30
2022-09-28T07:18:38.184Z,15.90
2022-09-28T07:19:38.227Z,15.80
2022-09-28T07:20:48.732Z,15.90
2022-09-28T07:21:38.190Z,14.30
2022-09-28T07:22:43.080Z,16.60
2022-09-28T07:23:47.008Z,15.70
2022-09-28T07:24:38.131Z,15.70
2022-09-28T07:25:38.254Z,16.50
2022-09-28T07:26:38.105Z,15.80
2022-09-28T07:27:38.127Z,16.50
2022-09-28T07:28:38.238Z,14.30
2022-09-28T07:29:38.109Z,14.80
2022-09-28T07:30:38.181Z,16.90
2022-09-28T07:31:38.255Z,15.80
2022-09-28T07:32:38.072Z,16.10
2022-09-28T07:33:38.568Z,14.50
2022-09-28T07:34:38.083Z,14.70
2022-09-28T07:35:38.117Z,14.70
2022-09-28T07:36:38.027Z,14.10
2022-09-28T07:37:38.201Z,14.70
2022-09-28T07:38:38.013Z,12.70
2022-09-28T07:39:38.047Z,14.60
2022-09-28T07:40:38.031Z,13.80
2022-09-28T07:41:38.009Z,13.70
2022-09-28T07:42:37.988Z,13.90
2022-09-28T07:43:38.000Z,12.00
2022-09-28T07:44:37.957Z,13.80
2022-09-28T07:45:38.015Z,13.60
2022-09-28T07:46:37.954Z,13.50
2022-09-28T07:47:37.980Z,13.60
2022-09-28T07:48:38.045Z,12.90
2022-09-28T07:49:38.244Z,12.20
2022-09-28T07:52:31.913Z,12.10
2022-09-28T07:53:31.966Z,10.20
2022-09-28T07:54:31.958Z,10.70
2022-09-28T07:55:31.979Z,10.30
2022-09-28T07:56:31.947Z,10.80
2022-09-28T07:57:31.975Z,10.00
2022-09-28T07:58:31.955Z,10.00
2022-09-28T07:59:31.980Z,8.90
2022-09-28T08:00:34.223Z,9.80
2022-09-28T08:01:32.081Z,10.00
2022-09-28T08:02:31.987Z,9.30
2022-09-28T08:03:31.938Z,9.20
2022-09-28T08:04:31.900Z,8.90
2022-09-28T08:05:31.923Z,9.00
2022-09-28T08:06:32.489Z,8.90
2022-09-28T08:07:31.951Z,9.20
2022-09-28T08:08:31.902Z,9.90
2022-09-28T08:09:32.306Z,9.70
2022-09-28T08:10:37.021Z,8.80
2022-09-28T08:11:37.052Z,8.90
2022-09-28T08:12:36.913Z,8.50
2022-09-28T08:13:36.947Z,8.80
2022-09-28T08:14:36.896Z,9.30
2022-09-28T08:15:37.173Z,8.70
2022-09-28T08:16:41.841Z,8.40
2022-09-28T08:17:41.913Z,8.10
2022-09-28T08:18:41.892Z,7.70
2022-09-28T08:19:41.915Z,8.10
2022-09-28T08:20:41.918Z,8.00
2022-09-28T08:21:47.949Z,7.40
2022-09-28T08:22:53.811Z,7.30
2022-09-28T08:23:53.910Z,7.50
2022-09-28T08:24:53.912Z,7.70
2022-09-28T08:25:54.187Z,8.40
2022-09-28T08:26:54.029Z,7.40
2022-09-28T08:27:53.975Z,7.10
2022-09-28T08:28:53.902Z,6.80
2022-09-28T08:31:04.019Z,7.50
2022-09-28T08:32:04.053Z,6.50
2022-09-28T08:33:03.916Z,6.40
2022-09-28T08:34:03.920Z,6.20
2022-09-28T08:35:03.912Z,7.20
2022-09-28T08:36:03.927Z,5.60
2022-09-28T08:37:03.925Z,5.70
2022-09-28T08:38:04.065Z,6.00
2022-09-28T08:39:03.915Z,6.40
2022-09-28T08:40:03.934Z,5.50
2022-09-28T08:41:04.062Z,6.20
2022-09-28T08:42:04.071Z,5.80
2022-09-28T08:43:03.916Z,5.20
2022-09-28T08:44:04.056Z,5.70
2022-09-28T08:45:03.902Z,6.10
2022-09-28T08:46:04.006Z,5.30
2022-09-28T08:47:03.929Z,5.20
2022-09-28T08:48:03.938Z,5.00
2022-09-28T08:49:24.220Z,5.20
2022-09-28T08:50:04.079Z,5.10
2022-09-28T08:51:03.959Z,5.00
2022-09-28T08:52:03.954Z,5.70
2022-09-28T08:53:03.987Z,5.00
2022-09-28T08:54:06.830Z,4.80
2022-09-28T08:55:03.927Z,4.90
2022-09-28T08:56:03.993Z,4.90
2022-09-28T08:57:03.949Z,5.00
2022-09-28T08:58:03.987Z,4.10
2022-09-28T08:59:03.966Z,4.40
2022-09-28T09:00:06.174Z,4.40
2022-09-28T09:01:04.053Z,4.60
2022-09-28T09:02:04.203Z,3.90
2022-09-28T09:03:03.961Z,3.60
2022-09-28T09:04:04.008Z,4.00
2022-09-28T09:05:03.987Z,4.10
2022-09-28T09:06:03.975Z,4.00
2022-09-28T09:07:03.952Z,4.00
2022-09-28T09:08:04.108Z,3.80
2022-09-28T09:09:03.995Z,4.10
2022-09-28T09:10:03.967Z,4.00
2022-09-28T09:11:03.955Z,4.20
2022-09-28T09:12:03.974Z,3.60
2022-09-28T09:13:03.963Z,4.50
2022-09-28T09:14:04.206Z,3.80
2022-09-28T09:15:03.959Z,3.80
2022-09-28T09:16:04.006Z,3.90
2022-09-28T09:17:04.077Z,3.80
2022-09-28T09:18:04.013Z,3.80
2022-09-28T09:19:03.990Z,3.30
2022-09-28T09:20:04.026Z,3.30
2022-09-28T09:21:04.037Z,3.50
2022-09-28T09:22:04.032Z,3.40
2022-09-28T09:23:04.004Z,3.40
2022-09-28T09:24:09.941Z,2.60
2022-09-28T09:25:10.158Z,2.90
2022-09-28T09:26:10.052Z,2.60
2022-09-28T09:27:10.912Z,3.50
2022-09-28T09:28:15.940Z,3.40
2022-09-28T09:29:16.058Z,2.90
2022-09-28T09:30:18.840Z,3.10
2022-09-28T09:31:20.734Z,2.30
2022-09-28T09:32:16.063Z,2.90
2022-09-28T09:33:16.097Z,3.10
2022-09-28T09:34:16.332Z,2.70
2022-09-28T09:35:16.165Z,2.80
2022-09-28T09:36:16.221Z,2.70
2022-09-28T09:37:22.023Z,2.60
2022-09-28T09:38:22.136Z,2.20
2022-09-28T09:39:22.121Z,2.20
2022-09-28T09:40:22.199Z,1.90
2022-09-28T09:41:22.245Z,2.40
2022-09-28T09:42:22.180Z,2.40
2022-09-28T09:43:22.148Z,1.80
2022-09-28T09:44:22.292Z,1.80
2022-09-28T09:45:22.174Z,1.50
2022-09-28T09:46:22.265Z,2.00
2022-09-28T09:47:22.283Z,2.10
2022-09-28T09:48:22.224Z,2.10
2022-09-28T09:49:22.192Z,1.80
2022-09-28T09:50:22.235Z,1.70
2022-09-28T09:51:22.229Z,1.90
2022-09-28T09:52:22.349Z,2.50
2022-09-28T09:53:22.366Z,2.20
2022-09-28T09:54:27.196Z,2.00
2022-09-28T09:55:29.825Z,1.60
2022-09-28T09:56:27.268Z,1.80
2022-09-28T09:57:27.318Z,1.50
2022-09-28T09:58:27.345Z,1.70
2022-09-28T09:59:27.358Z,1.80
2022-09-28T10:00:27.343Z,1.40
2022-09-28T10:01:27.428Z,1.30
2022-09-28T10:02:33.366Z,1.30
2022-09-28T10:03:33.548Z,1.10
2022-09-28T10:04:33.511Z,1.30
2022-09-28T10:05:33.486Z,1.30
2022-09-28T10:06:33.508Z,1.30
2022-09-28T10:07:33.515Z,1.10
2022-09-28T10:08:33.545Z,1.30
2022-09-28T10:09:33.577Z,0.90
2022-09-28T10:10:33.584Z,1.20
2022-09-28T10:11:33.581Z,1.10
2022-09-28T10:12:33.627Z,1.30
2022-09-28T10:13:33.634Z,1.30
2022-09-28T10:14:33.832Z,1.00
2022-09-28T10:15:33.660Z,1.40
2022-09-28T10:16:33.813Z,1.20
2022-09-28T10:17:33.701Z,1.10
2022-09-28T10:18:33.733Z,1.10
2022-09-28T10:19:33.753Z,1.00
2022-09-28T10:20:33.896Z,1.40
2022-09-28T10:21:33.782Z,1.10
2022-09-28T10:22:33.813Z,1.10
2022-09-28T10:23:33.799Z,1.00
2022-09-28T10:24:33.858Z,1.30
2022-09-28T10:25:33.834Z,1.10
2022-09-28T10:26:33.896Z,1.10
2022-09-28T10:27:33.868Z,1.10
2022-09-28T10:28:33.911Z,1.10
2022-09-28T10:29:33.921Z,1.10
2022-09-28T10:30:33.989Z,1.00
2022-09-28T10:31:33.944Z,1.30
2022-09-28T10:32:33.979Z,1.20
2022-09-28T10:33:33.974Z,0.80
2022-09-28T10:34:34.096Z,1.10
2022-09-28T10:35:34.042Z,1.10
2022-09-28T10:36:34.111Z,1.20
2022-09-28T10:37:34.094Z,1.10
2022-09-28T10:38:38.039Z,1.00
2022-09-28T10:39:38.147Z,0.90
2022-09-28T10:40:38.195Z,1.10
2022-09-28T10:41:43.125Z,1.10
2022-09-28T10:42:43.217Z,0.80
2022-09-28T10:43:46.571Z,1.00
2022-09-28T10:44:43.268Z,0.90
2022-09-28T10:45:43.328Z,1.00
2022-09-28T10:46:43.293Z,1.20
2022-09-28T10:47:43.289Z,1.00
2022-09-28T10:48:43.345Z,1.00
2022-09-28T10:49:46.778Z,1.10
2022-09-28T10:50:43.424Z,0.60
2022-09-28T10:51:43.403Z,0.70
2022-09-28T10:52:43.443Z,0.70
2022-09-28T10:53:43.456Z,0.60
2022-09-28T10:54:43.592Z,0.70
2022-09-28T10:55:43.626Z,0.60
2022-09-28T10:56:43.544Z,0.80
2022-09-28T10:57:43.546Z,0.80
2022-09-28T10:58:43.591Z,0.80
2022-09-28T10:59:43.599Z,0.90
2022-09-28T11:00:44.789Z,0.90
2022-09-28T11:01:44.723Z,0.90
2022-09-28T11:02:44.770Z,0.70
2022-09-28T11:03:44.729Z,0.70
2022-09-28T11:04:44.878Z,0.60
2022-09-28T11:05:44.773Z,0.70
2022-09-28T11:06:44.853Z,0.80
2022-09-28T11:07:44.815Z,0.70
2022-09-28T11:08:44.883Z,0.70
2022-09-28T11:09:47.705Z,0.70
2022-09-28T11:11:49.851Z,0.50
2022-09-28T11:12:55.885Z,0.90
2022-09-28T11:13:56.021Z,0.60
2022-09-28T11:14:56.124Z,0.80
2022-09-28T11:15:56.047Z,0.90
2022-09-28T11:16:56.123Z,0.80
2022-09-28T11:17:56.111Z,0.90
2022-09-28T11:18:56.110Z,1.00
2022-09-28T11:19:56.162Z,1.20
2022-09-28T11:20:56.155Z,0.90
2022-09-28T11:21:56.233Z,0.80
2022-09-28T11:22:56.196Z,0.90
2022-09-28T11:23:56.232Z,0.80
2022-09-28T11:24:56.383Z,1.00
2022-09-28T11:25:56.305Z,0.90
2022-09-28T11:26:56.390Z,0.80
2022-09-28T11:27:56.322Z,1.10
2022-09-28T11:28:56.345Z,0.90
2022-09-28T11:29:56.391Z,0.80
2022-09-28T11:30:56.410Z,1.40
2022-09-28T11:31:56.430Z,0.90
2022-09-28T11:32:56.442Z,0.80
2022-09-28T11:33:56.473Z,0.70
2022-09-28T11:34:59.627Z,0.80
2022-09-28T11:35:56.526Z,0.60
2022-09-28T11:37:00.949Z,0.70
2022-09-28T11:37:56.564Z,0.70
2022-09-28T11:38:56.599Z,0.70
2022-09-28T11:39:56.621Z,0.80
2022-09-28T11:40:56.711Z,0.90
2022-09-28T11:41:56.757Z,0.80
2022-09-28T11:42:56.712Z,0.70
2022-09-28T11:44:01.601Z,0.70
2022-09-28T11:45:01.789Z,0.70
2022-09-28T11:46:01.800Z,0.90
2022-09-28T11:47:01.959Z,0.80
2022-09-28T11:48:01.815Z,0.90
2022-09-28T11:49:01.856Z,0.70
2022-09-28T11:50:01.903Z,0.70
2022-09-28T11:51:01.921Z,0.80
2022-09-28T11:52:01.955Z,0.80
2022-09-28T11:53:02.017Z,0.70
2022-09-28T11:54:02.007Z,0.70
2022-09-28T11:55:02.203Z,0.80
2022-09-28T11:56:06.554Z,0.80
2022-09-28T11:57:02.148Z,0.70
2022-09-28T11:58:02.253Z,0.70
2022-09-28T11:59:02.196Z,0.80
2022-09-28T12:00:02.219Z,0.90
2022-09-28T12:01:02.284Z,0.70
2022-09-28T12:02:02.365Z,0.80
2022-09-28T12:03:02.449Z,0.70
2022-09-28T12:04:07.241Z,0.80
2022-09-28T12:05:07.414Z,0.90
2022-09-28T12:06:07.815Z,0.70
2022-09-28T12:07:07.443Z,0.70
2022-09-28T12:08:07.456Z,0.80
2022-09-28T12:09:07.613Z,0.70
2022-09-28T12:10:07.513Z,0.80
2022-09-28T12:11:07.543Z,0.80
2022-09-28T12:12:07.574Z,0.80
2022-09-28T12:13:07.592Z,0.70
2022-09-28T12:14:07.986Z,0.90
2022-09-28T12:15:12.662Z,0.70
2022-09-28T12:18:06.737Z,0.70
2022-09-28T12:19:06.761Z,0.80
2022-09-28T12:20:06.838Z,1.00
2022-09-28T12:21:06.805Z,1.00
2022-09-28T12:22:06.845Z,1.00
2022-09-28T12:23:06.851Z,1.10
2022-09-28T12:24:06.894Z,1.00
2022-09-28T12:25:07.030Z,1.00
2022-09-28T12:26:07.083Z,0.90
2022-09-28T12:27:06.973Z,1.00
2022-09-28T12:28:07.023Z,0.80
2022-09-28T12:29:07.032Z,1.00
2022-09-28T12:30:07.177Z,0.70
2022-09-28T12:31:07.681Z,0.70
2022-09-28T12:32:07.151Z,1.00
2022-09-28T12:33:07.155Z,0.80
2022-09-28T12:34:07.209Z,1.10
2022-09-28T12:35:07.387Z,0.80
2022-09-28T12:36:07.372Z,0.60
2022-09-28T12:37:07.283Z,0.80
2022-09-28T12:38:07.341Z,0.90
2022-09-28T12:39:18.661Z,0.50
2022-09-28T12:40:07.840Z,0.70
2022-09-28T12:41:07.509Z,2.40
2022-09-28T12:42:07.481Z,0.80
2022-09-28T12:43:07.515Z,0.80
2022-09-28T12:44:07.545Z,0.70
2022-09-28T12:45:07.570Z,0.70
2022-09-28T12:46:12.063Z,0.80
2022-09-28T12:47:07.650Z,0.70
2022-09-28T12:48:07.660Z,0.90
2022-09-28T12:50:37.550Z,0.60
2022-09-28T12:51:07.731Z,0.70
2022-09-28T12:52:07.778Z,0.70
2022-09-28T12:53:07.793Z,0.80
2022-09-28T12:54:12.778Z,0.50
2022-09-28T12:55:12.988Z,0.70
2022-09-28T12:56:13.938Z,0.60
2022-09-28T12:57:12.941Z,0.70
2022-09-28T12:58:12.947Z,0.60
2022-09-28T12:59:13.011Z,0.90
2022-09-28T13:00:13.148Z,0.90
2022-09-28T13:01:13.123Z,0.80
2022-09-28T13:02:13.121Z,0.60
2022-09-28T13:03:13.144Z,1.10
2022-09-28T13:04:13.473Z,0.80
2022-09-28T13:05:13.215Z,0.60
2022-09-28T13:06:13.357Z,0.70
2022-09-28T13:07:13.286Z,0.80
2022-09-28T13:08:13.276Z,0.70
2022-09-28T13:09:13.326Z,0.70
2022-09-28T13:10:13.443Z,0.70
2022-09-28T13:11:13.379Z,0.50
2022-09-28T13:12:13.388Z,0.50
2022-09-28T13:13:13.451Z,0.60